Time;durP1;ratioP1;P1;durP2;ratioP2;P2;SDS_P1;SDS_P2;PMS_P1;PMS_P2;Temp;Humidity;BMP_temperature;BMP_pressure;BME280_temperature;BME280_humidity;BME280_pressure;Samples;Min_cycle;Max_cycle;Signal;HPM_P1;HPM_P2
2022/01/01 00:00:34;;;;;;;20.00;15.37;;;15.40;82.50;;;18.07;60.50;101904.31;4863069;29;20208;-64
2022/01/01 00:03:01;;;;;;;23.37;15.47;;;15.40;82.50;;;18.07;60.59;101904.31;4863415;29;20299;-64
2022/01/01 00:05:29;;;;;;;21.20;15.50;;;15.40;82.40;;;18.10;60.68;101903.94;4863447;29;20220;-64
2022/01/01 00:07:59;;;;;;;19.67;13.30;;;15.40;82.50;;;18.10;60.68;101899.44;4863650;29;20197;-64
2022/01/01 00:10:27;;;;;;;18.97;13.03;;;15.40;82.50;;;18.10;60.64;101893.25;4863387;29;20201;-63
2022/01/01 00:13:14;;;;;;;19.57;12.90;;;15.30;82.40;;;18.07;60.45;101889.16;4863328;29;20224;-64
2022/01/01 00:15:41;;;;;;;19.33;12.93;;;15.40;82.40;;;18.06;60.71;101892.03;4863560;29;20257;-64
2022/01/01 00:18:09;;;;;;;18.93;12.37;;;15.30;82.30;;;18.08;60.51;101895.31;4864093;29;20200;-64
2022/01/01 00:20:36;;;;;;;17.90;11.53;;;15.30;82.40;;;18.09;60.38;101907.63;4864453;29;20201;-64
2022/01/01 00:23:03;;;;;;;20.23;12.13;;;15.40;82.50;;;18.12;60.43;101909.88;4863175;29;20276;-64
2022/01/01 00:25:31;;;;;;;19.50;11.80;;;15.30;82.40;;;18.13;60.23;101906.22;4864034;29;20221;-64
2022/01/01 00:27:59;;;;;;;18.97;10.87;;;15.30;82.40;;;18.15;60.28;101917.50;4863413;29;20566;-64
2022/01/01 00:30:27;;;;;;;19.47;11.50;;;15.40;82.60;;;18.15;60.36;101922.81;4864445;29;20196;-64
2022/01/01 00:32:55;;;;;;;15.60;10.67;;;15.30;82.40;;;18.14;60.26;101915.84;4863167;29;20240;-64
2022/01/01 00:35:22;;;;;;;17.60;10.77;;;15.40;82.50;;;18.12;60.43;101917.88;4862431;29;20196;-64
2022/01/01 00:37:49;;;;;;;17.87;10.93;;;15.30;82.40;;;18.09;60.33;101924.41;4863482;29;20204;-64
2022/01/01 00:40:18;;;;;;;15.07;10.37;;;15.30;82.40;;;18.08;60.59;101924.63;4863160;29;20201;-64
2022/01/01 00:42:46;;;;;;;18.07;10.53;;;15.40;82.50;;;18.09;60.51;101918.28;4861550;29;20231;-64
2022/01/01 00:45:13;;;;;;;16.07;9.40;;;15.30;82.40;;;18.11;60.41;101926.91;4862961;29;20555;-64
2022/01/01 00:47:42;;;;;;;15.20;10.33;;;15.30;82.40;;;18.12;60.41;101936.53;4863131;29;20276;-64
2022/01/01 00:50:10;;;;;;;20.10;11.43;;;15.30;82.30;;;18.10;60.48;101941.25;4861826;29;20253;-64
2022/01/01 00:52:37;;;;;;;16.10;10.57;;;15.30;82.30;;;18.08;60.53;101943.28;4862730;29;20197;-64
2022/01/01 00:55:06;;;;;;;16.50;10.33;;;15.30;82.40;;;18.10;60.37;101938.56;4863375;29;20275;-64
2022/01/01 00:57:33;;;;;;;19.33;11.40;;;15.30;82.40;;;18.08;60.36;101935.28;4861652;29;20208;-64
2022/01/01 01:00:01;;;;;;;14.93;10.73;;;15.30;82.40;;;18.05;60.41;101936.50;4861379;29;20208;-63
2022/01/01 01:02:29;;;;;;;16.33;10.83;;;15.30;82.30;;;18.05;60.40;101933.00;4862708;29;20193;-63
2022/01/01 01:04:58;;;;;;;18.70;11.27;;;15.30;82.40;;;18.06;60.52;101929.31;4863058;29;20217;-63
2022/01/01 01:07:25;;;;;;;18.00;12.17;;;15.30;82.40;;;18.06;60.51;101924.00;4862837;29;20276;-63
2022/01/01 01:09:53;;;;;;;20.10;12.47;;;15.30;82.50;;;18.07;60.40;101922.97;4862666;29;20283;-64
2022/01/01 01:12:27;;;;;;;22.73;12.70;;;15.30;82.50;;;18.05;60.49;101927.66;4862202;29;20666;-64
2022/01/01 01:14:55;;;;;;;16.77;12.27;;;15.30;82.60;;;18.05;60.61;101935.66;4847249;29;20647;-64
2022/01/01 01:17:22;;;;;;;17.63;11.83;;;15.20;82.60;;;18.03;60.49;101930.53;4862653;29;20201;-63
2022/01/01 01:19:49;;;;;;;18.53;12.03;;;15.20;82.60;;;18.02;60.42;101938.69;4862570;29;20372;-63
2022/01/01 01:22:18;;;;;;;20.60;12.40;;;15.20;82.60;;;17.99;60.60;101934.63;4862368;29;20192;-64
2022/01/01 01:24:46;;;;;;;18.53;12.23;;;15.20;82.50;;;17.98;60.51;101935.63;4861938;29;20708;-64
2022/01/01 01:27:13;;;;;;;15.40;9.97;;;15.20;82.60;;;17.98;60.66;101943.63;4862528;29;20199;-63
2022/01/01 01:29:43;;;;;;;20.13;12.30;;;15.20;82.60;;;17.99;60.67;101936.44;4861988;29;20208;-64
2022/01/01 01:32:11;;;;;;;15.83;11.33;;;15.20;82.60;;;17.99;60.80;101934.63;4861744;29;20715;-64
2022/01/01 01:34:38;;;;;;;15.20;9.83;;;15.20;82.60;;;18.02;60.51;101944.03;4861921;29;20304;-64
2022/01/01 01:37:06;;;;;;;19.57;12.37;;;15.20;82.60;;;18.01;60.73;101955.72;4862457;29;20203;-64
2022/01/01 01:39:34;;;;;;;17.60;11.00;;;15.20;82.60;;;18.00;60.64;101952.22;4862178;29;20208;-63
2022/01/01 01:42:02;;;;;;;24.40;12.17;;;15.20;82.50;;;18.00;60.49;101954.06;4862321;29;20207;-64
2022/01/01 01:44:42;;;;;;;16.20;11.60;;;15.20;82.50;;;17.96;60.69;101950.16;4861612;29;20216;-63
2022/01/01 01:47:15;;;;;;;17.70;11.20;;;15.20;82.50;;;17.94;60.69;101957.50;4861821;29;20200;-64
2022/01/01 01:49:44;;;;;;;15.87;10.87;;;15.20;82.50;;;17.94;60.75;101952.19;4862175;29;20746;-64
2022/01/01 01:52:15;;;;;;;23.67;11.27;;;15.20;82.60;;;17.96;60.78;101966.13;4862268;29;20203;-64
2022/01/01 01:54:44;;;;;;;20.83;11.23;;;15.20;82.60;;;17.97;60.56;101973.13;4860856;29;20219;-63
2022/01/01 01:57:12;;;;;;;17.43;11.27;;;15.20;82.60;;;17.95;60.56;101970.63;4861941;29;20236;-63
2022/01/01 01:59:40;;;;;;;18.07;10.40;;;15.20;82.50;;;17.93;60.74;101967.34;4862435;29;20218;-63
2022/01/01 02:02:08;;;;;;;16.77;11.93;;;15.20;82.60;;;17.94;60.81;101973.50;4861506;29;20215;-63
2022/01/01 02:04:36;;;;;;;17.47;11.17;;;15.20;82.60;;;17.94;60.67;101973.50;4860466;29;20308;-64
2022/01/01 02:07:06;;;;;;;15.20;10.13;;;15.20;82.60;;;17.92;60.68;101984.38;4861952;29;20244;-64
2022/01/01 02:09:34;;;;;;;17.93;10.13;;;15.20;82.50;;;17.93;60.82;101987.81;4861926;29;20233;-64
2022/01/01 02:12:05;;;;;;;19.40;10.93;;;15.20;82.50;;;17.93;60.62;101993.16;4861735;29;20202;-64
2022/01/01 02:15:11;;;;;;;18.90;10.90;;;15.20;82.50;;;17.93;60.68;102003.81;4861219;29;20223;-63
2022/01/01 02:17:38;;;;;;;19.03;10.93;;;15.20;82.50;;;17.93;60.51;101993.97;4861867;29;20207;-63
2022/01/01 02:20:13;;;;;;;13.60;9.67;;;15.20;82.30;;;17.93;60.52;101995.81;4859791;29;20197;-63
2022/01/01 02:22:50;;;;;;;17.37;10.40;;;15.20;82.30;;;17.98;60.48;102012.06;4860953;29;20200;-63
2022/01/01 02:25:19;;;;;;;16.63;9.17;;;15.20;82.30;;;18.00;60.35;102015.34;4860901;29;20221;-63
2022/01/01 02:27:47;;;;;;;19.10;10.53;;;15.20;82.30;;;18.01;60.32;102004.53;4861395;29;20236;-64
2022/01/01 02:30:16;;;;;;;17.13;10.03;;;15.20;82.20;;;18.05;60.28;101999.63;4861315;29;20678;-63
2022/01/01 02:32:44;;;;;;;19.10;10.90;;;15.20;82.10;;;18.02;60.32;101987.50;4860693;29;20201;-64
2022/01/01 02:35:16;;;;;;;22.80;11.50;;;15.20;81.90;;;18.00;60.21;101980.72;4861158;29;20192;-64
2022/01/01 02:37:44;;;;;;;16.93;9.43;;;15.30;81.90;;;18.01;60.25;101985.03;4860628;29;20205;-64
2022/01/01 02:40:14;;;;;;;20.77;11.63;;;15.30;81.90;;;18.00;59.93;101989.53;4861217;29;20304;-64
2022/01/01 02:42:45;;;;;;;17.77;11.67;;;15.20;81.60;;;18.00;60.15;101999.34;4860792;29;20573;-63
2022/01/01 02:45:14;;;;;;;15.20;9.87;;;15.20;81.60;;;18.00;59.97;102007.34;4861094;29;20216;-64
2022/01/01 02:47:42;;;;;;;20.70;11.20;;;15.20;81.60;;;18.00;59.94;102000.19;4860885;29;20269;-64
2022/01/01 02:50:12;;;;;;;25.50;11.60;;;15.20;81.60;;;17.99;59.87;102005.72;4861035;29;20201;-64
2022/01/01 02:52:40;;;;;;;18.70;11.67;;;15.20;81.50;;;17.99;60.05;102006.56;4859913;29;20302;-66
2022/01/01 02:55:09;;;;;;;20.43;12.23;;;15.20;81.50;;;18.00;59.79;102010.03;4860562;29;20572;-63
2022/01/01 02:57:36;;;;;;;21.33;11.83;;;15.20;81.30;;;17.96;59.83;101998.94;4860938;29;20196;-64
2022/01/01 03:00:05;;;;;;;21.23;11.33;;;15.20;81.20;;;17.93;59.93;102012.63;4860561;29;20193;-63
2022/01/01 03:02:33;;;;;;;20.47;12.37;;;15.20;81.30;;;17.91;59.85;102011.16;4860159;29;20223;-63
2022/01/01 03:05:00;;;;;;;19.63;11.83;;;15.20;81.30;;;17.90;59.86;102009.53;4860678;29;20196;-63
2022/01/01 03:07:29;;;;;;;19.23;11.40;;;15.20;81.20;;;17.90;59.81;102009.53;4860463;29;20209;-63
2022/01/01 03:09:56;;;;;;;18.20;12.00;;;15.20;81.30;;;17.89;59.97;102007.88;4860241;29;20211;-63
2022/01/01 03:12:24;;;;;;;17.50;12.27;;;15.20;81.30;;;17.90;59.98;102022.88;4859994;29;20201;-61
2022/01/01 03:14:51;;;;;;;16.47;11.30;;;15.20;81.30;;;17.90;59.88;102020.19;4859636;29;20254;-63
2022/01/01 03:17:18;;;;;;;21.13;11.83;;;15.20;81.30;;;17.92;59.73;102010.16;4859518;29;20261;-63
2022/01/01 03:19:46;;;;;;;20.53;12.93;;;15.20;81.30;;;17.92;59.70;102024.31;4860770;29;20283;-63
2022/01/01 03:22:14;;;;;;;20.90;12.70;;;15.20;81.20;;;17.91;59.90;102028.00;4859586;29;20209;-63
2022/01/01 03:24:42;;;;;;;22.03;13.13;;;15.20;81.30;;;17.91;59.83;102027.16;4859804;29;20243;-63
2022/01/01 03:27:10;;;;;;;20.37;11.87;;;15.20;81.20;;;17.89;59.97;102029.19;4860363;29;20231;-64
2022/01/01 03:29:38;;;;;;;23.07;13.37;;;15.20;81.30;;;17.89;59.92;102019.38;4859232;29;20639;-63
2022/01/01 03:32:07;;;;;;;24.17;11.97;;;15.10;81.30;;;17.91;59.76;102021.84;4859995;29;20635;-63
2022/01/01 03:34:34;;;;;;;22.23;12.97;;;15.10;81.40;;;17.92;59.75;102028.81;4859867;29;20214;-63
2022/01/01 03:37:02;;;;;;;19.10;11.50;;;15.10;81.40;;;17.92;59.79;102034.16;4860083;29;20207;-63
2022/01/01 03:39:29;;;;;;;19.93;12.00;;;15.10;81.30;;;17.93;59.61;102033.13;4860521;29;20193;-63
2022/01/01 03:41:58;;;;;;;22.60;12.90;;;15.10;81.30;;;17.93;59.63;102030.44;4860386;29;20573;-63
2022/01/01 03:44:25;;;;;;;18.20;11.67;;;15.10;81.30;;;17.94;59.66;102021.47;4859549;29;20225;-63
2022/01/01 03:47:00;;;;;;;22.77;12.30;;;15.10;81.30;;;17.94;59.73;102021.47;4860342;29;20224;-63
2022/01/01 03:49:28;;;;;;;19.13;13.07;;;15.10;81.30;;;17.93;59.59;102006.47;4860388;29;20207;-63
2022/01/01 03:51:55;;;;;;;25.43;12.67;;;15.10;81.30;;;17.91;59.79;102005.84;4860139;29;20636;-63
2022/01/01 03:54:22;;;;;;;21.70;11.83;;;15.10;81.30;;;17.88;59.76;102011.53;4859947;29;20263;-63
2022/01/01 03:56:50;;;;;;;24.47;12.77;;;15.10;81.30;;;17.87;59.81;102016.06;4859888;29;20189;-64
2022/01/01 03:59:20;;;;;;;18.60;12.13;;;15.10;81.40;;;17.88;59.70;102022.19;4859178;29;20214;-63
2022/01/01 04:01:48;;;;;;;22.27;12.83;;;15.10;81.40;;;17.89;59.95;102023.88;4860054;29;20275;-63
2022/01/01 04:04:15;;;;;;;23.93;14.90;;;15.10;81.50;;;17.90;59.49;102030.84;4859891;29;20561;-63
2022/01/01 04:06:42;;;;;;;22.20;15.53;;;15.10;81.60;;;17.91;59.74;102027.16;4860282;29;20219;-63
2022/01/01 04:09:10;;;;;;;25.73;16.40;;;15.10;81.60;;;17.91;60.05;102029.81;4860410;29;20280;-63
2022/01/01 04:11:37;;;;;;;22.60;15.43;;;15.10;81.70;;;17.91;59.95;102045.81;4860134;29;20200;-63
2022/01/01 04:14:04;;;;;;;22.20;15.87;;;15.10;81.70;;;17.90;59.98;102025.53;4859453;29;20227;-63
2022/01/01 04:16:33;;;;;;;30.83;16.67;;;15.10;81.80;;;17.90;59.98;102036.19;4859869;29;20207;-63
2022/01/01 04:19:01;;;;;;;24.03;16.47;;;15.10;81.80;;;17.91;59.98;102045.81;4860333;29;20271;-63
2022/01/01 04:21:28;;;;;;;26.97;15.23;;;15.10;81.80;;;17.91;60.03;102051.97;4859868;29;20193;-63
2022/01/01 04:23:55;;;;;;;27.00;16.03;;;15.10;81.80;;;17.94;59.89;102053.44;4859265;29;20220;-63
2022/01/01 04:26:24;;;;;;;29.00;17.43;;;15.10;81.90;;;17.95;59.82;102049.72;4862543;29;20611;-63
2022/01/01 04:28:52;;;;;;;26.10;17.10;;;15.10;81.90;;;17.95;59.85;102047.91;4861875;29;20551;-63
2022/01/01 04:31:19;;;;;;;34.63;19.17;;;15.10;81.80;;;17.96;59.90;102043.41;4863017;29;20201;-63
2022/01/01 04:33:48;;;;;;;29.97;17.57;;;15.10;81.70;;;17.95;59.77;102053.22;4862514;29;20212;-63
2022/01/01 04:36:15;;;;;;;31.37;17.80;;;15.10;81.70;;;17.93;59.90;102051.75;4863366;29;20221;-63
2022/01/01 04:38:44;;;;;;;26.87;17.93;;;15.10;81.60;;;17.91;59.80;102056.47;4863084;29;20537;-63
2022/01/01 04:41:14;;;;;;;26.63;15.93;;;15.10;81.60;;;17.93;59.90;102062.41;4863170;29;20224;-63
2022/01/01 04:43:46;;;;;;;30.07;18.37;;;15.10;81.50;;;17.92;59.69;102066.13;4862891;29;20217;-63
2022/01/01 04:46:15;;;;;;;28.73;17.40;;;15.10;81.40;;;17.91;60.05;102070.63;4863065;29;20299;-63
2022/01/01 04:48:43;;;;;;;25.40;17.33;;;15.10;81.40;;;17.89;59.80;102062.00;4862896;29;20606;-63
2022/01/01 04:51:12;;;;;;;28.70;17.30;;;15.20;81.50;;;17.89;59.79;102077.16;4862970;29;20228;-63
2022/01/01 04:53:40;;;;;;;23.60;16.97;;;15.10;81.40;;;17.90;59.75;102068.94;4862497;29;20220;-63
2022/01/01 04:56:08;;;;;;;25.67;16.90;;;15.10;82.20;;;17.90;59.79;102062.81;4862970;29;20203;-63
2022/01/01 04:58:36;;;;;;;35.20;19.20;;;15.10;81.40;;;17.89;59.71;102062.00;4862985;29;20204;-63
2022/01/01 05:01:04;;;;;;;28.40;17.73;;;15.10;81.40;;;17.89;59.83;102061.16;4862783;29;20196;-63
2022/01/01 05:03:32;;;;;;;28.90;18.47;;;15.10;81.40;;;17.90;59.79;102066.28;4862557;29;20271;-63
2022/01/01 05:06:00;;;;;;;29.97;18.90;;;15.10;81.40;;;17.89;59.79;102061.16;4862633;29;20222;-63
2022/01/01 05:08:29;;;;;;;30.17;18.00;;;15.10;81.50;;;17.87;59.75;102064.03;4862875;29;20193;-63
2022/01/01 05:10:56;;;;;;;30.50;17.97;;;15.10;81.50;;;17.88;59.79;102057.66;4862695;29;20223;-63
2022/01/01 05:13:24;;;;;;;29.23;19.80;;;15.10;81.50;;;17.88;59.74;102067.50;4862230;29;20224;-63
2022/01/01 05:15:52;;;;;;;31.80;19.20;;;15.10;81.50;;;17.88;59.76;102070.16;4862620;29;20204;-63
2022/01/01 05:18:19;;;;;;;29.47;18.43;;;15.10;81.60;;;17.88;59.87;102075.47;4863075;29;20201;-63
2022/01/01 05:20:46;;;;;;;32.57;21.53;;;15.10;81.60;;;17.86;59.82;102083.69;4862236;29;20223;-63
2022/01/01 05:23:14;;;;;;;32.73;20.90;;;15.10;81.60;;;17.85;59.85;102076.69;4862009;29;20246;-63
2022/01/01 05:25:42;;;;;;;33.30;19.37;;;15.00;81.50;;;17.85;59.89;102075.88;4862319;29;20565;-63
2022/01/01 05:28:10;;;;;;;36.60;22.67;;;15.00;81.50;;;17.87;59.90;102076.50;4862070;29;20641;-63
2022/01/01 05:30:37;;;;;;;36.97;24.43;;;15.00;81.50;;;17.87;59.85;102073.84;4862134;29;20689;-62
2022/01/01 05:33:04;;;;;;;41.07;23.53;;;15.00;81.60;;;17.85;59.85;102075.88;4860691;29;20229;-63
2022/01/01 05:35:32;;;;;;;33.37;21.97;;;15.00;81.70;;;17.84;59.86;102085.72;4862233;29;20207;-63
2022/01/01 05:37:59;;;;;;;34.40;21.23;;;15.00;81.70;;;17.85;60.09;102078.53;4861724;29;20195;-63
2022/01/01 05:40:48;;;;;;;27.67;20.13;;;15.00;81.70;;;17.88;59.78;102078.97;4862248;29;20200;-63
2022/01/01 05:43:15;;;;;;;37.73;23.47;;;15.00;81.70;;;17.91;59.54;102080.44;4861941;29;20326;-63
2022/01/01 05:45:43;;;;;;;37.20;22.70;;;15.00;81.70;;;17.92;59.73;102076.78;4861864;29;20212;-63
2022/01/01 05:48:11;;;;;;;44.53;24.93;;;15.10;81.90;;;17.93;59.77;102081.06;4860646;29;20259;-63
2022/01/01 05:50:38;;;;;;;42.87;24.50;;;15.00;81.70;;;17.92;59.74;102093.59;4861936;29;20527;-63
2022/01/01 05:53:06;;;;;;;42.83;26.17;;;15.10;81.80;;;17.91;59.85;102085.78;4861987;29;20584;-63
2022/01/01 05:55:33;;;;;;;39.70;24.23;;;15.10;81.80;;;17.91;59.93;102096.44;4861498;29;20623;-63
2022/01/01 05:58:02;;;;;;;43.60;26.73;;;15.10;81.80;;;17.87;60.00;102087.16;4861868;29;20201;-63
2022/01/01 06:00:30;;;;;;;42.40;26.20;;;15.10;81.70;;;17.83;59.99;102091.25;4861422;29;20674;-63
2022/01/01 06:02:58;;;;;;;42.63;26.37;;;15.00;81.60;;;17.82;59.95;102089.56;4861227;29;20224;-63
2022/01/01 06:05:27;;;;;;;40.10;24.77;;;15.00;81.70;;;17.81;60.24;102088.75;4860688;29;20201;-63
2022/01/01 06:07:56;;;;;;;34.27;24.17;;;15.00;81.70;;;17.80;60.11;102095.09;4861580;29;20225;-63
2022/01/01 06:10:25;;;;;;;40.87;25.30;;;15.00;81.80;;;17.79;60.07;102088.09;4861518;29;20517;-63
2022/01/01 06:12:53;;;;;;;36.27;24.23;;;15.00;81.90;;;17.77;60.31;102094.63;4861380;29;20303;-63
2022/01/01 06:15:22;;;;;;;38.73;22.97;;;15.00;81.80;;;17.76;60.08;102099.13;4861679;29;20561;-63
2022/01/01 06:17:50;;;;;;;41.10;23.70;;;15.00;81.80;;;17.77;60.50;102099.97;4861420;29;20639;-63
2022/01/01 06:20:17;;;;;;;37.13;24.20;;;15.00;81.90;;;17.76;60.29;102103.66;4861352;29;20196;-63
2022/01/01 06:23:02;;;;;;;33.80;22.33;;;15.00;81.90;;;17.75;60.30;102102.00;4861039;29;20222;-63
2022/01/01 06:25:30;;;;;;;39.20;23.90;;;15.00;82.00;;;17.74;60.33;102095.00;4861394;29;20264;-63
2022/01/01 06:27:57;;;;;;;37.20;23.60;;;15.00;82.00;;;17.73;60.51;102093.38;4860878;29;20220;-63
2022/01/01 06:30:33;;;;;;;35.57;22.27;;;15.00;82.00;;;17.74;60.18;102105.66;4861181;29;20226;-63
2022/01/01 06:33:08;;;;;;;37.03;23.47;;;15.00;82.10;;;17.75;60.49;102102.00;4860720;29;20685;-63
2022/01/01 06:35:35;;;;;;;38.73;24.03;;;14.90;82.20;;;17.74;60.37;102105.66;4861423;29;20208;-63
2022/01/01 06:38:03;;;;;;;47.47;23.07;;;14.90;82.20;;;17.74;60.41;102110.97;4861347;29;20224;-63
2022/01/01 06:40:30;;;;;;;41.57;25.33;;;14.90;82.20;;;17.73;60.43;102112.00;4861220;29;20197;-63
2022/01/01 06:42:58;;;;;;;39.03;24.07;;;14.90;82.20;;;17.72;60.27;102113.84;4860794;29;20689;-63
2022/01/01 06:45:26;;;;;;;34.37;21.03;;;14.90;82.30;;;17.74;60.55;102110.97;4860719;29;20205;-63
2022/01/01 06:47:54;;;;;;;34.83;22.30;;;14.90;82.30;;;17.76;60.29;102116.97;4860902;29;20332;-63
2022/01/01 06:50:21;;;;;;;39.57;22.40;;;15.00;82.40;;;17.80;60.56;102112.91;4860749;29;20329;-63
2022/01/01 06:52:49;;;;;;;37.87;22.33;;;15.00;82.40;;;17.83;60.16;102112.53;4859749;29;20216;-63
2022/01/01 06:55:17;;;;;;;37.13;23.73;;;15.00;82.40;;;17.84;60.26;102111.50;4860856;29;20663;-63
2022/01/01 06:57:46;;;;;;;37.13;24.07;;;15.00;82.40;;;17.84;60.21;102114.19;4860696;29;20223;-63
2022/01/01 07:00:15;;;;;;;47.30;29.00;;;15.00;83.10;;;17.84;60.26;102116.84;4860615;29;20189;-63
2022/01/01 07:02:46;;;;;;;43.90;28.33;;;15.00;82.20;;;17.80;60.23;102120.91;4860018;29;20208;-64
2022/01/01 07:05:15;;;;;;;44.43;25.80;;;15.00;82.20;;;17.79;60.03;102127.22;4860955;29;20253;-63
2022/01/01 07:07:43;;;;;;;42.43;28.33;;;15.00;82.20;;;17.78;60.42;102139.72;4860734;29;20664;-63
2022/01/01 07:10:12;;;;;;;41.73;27.40;;;15.00;82.20;;;17.79;60.26;102132.56;4860805;29;20542;-63
2022/01/01 07:12:41;;;;;;;40.57;27.40;;;15.00;82.30;;;17.79;60.33;102145.88;4859414;29;20200;-63
2022/01/01 07:15:09;;;;;;;53.40;31.47;;;15.00;82.30;;;17.76;60.38;102135.63;4860490;29;20204;-63
2022/01/01 07:17:37;;;;;;;46.53;29.43;;;15.00;82.20;;;17.73;60.23;102136.81;4860752;29;20275;-62
2022/01/01 07:20:07;;;;;;;45.77;29.03;;;14.90;82.20;;;17.72;60.44;102144.97;4860696;29;20204;-63
2022/01/01 07:22:40;;;;;;;49.00;30.07;;;14.90;82.30;;;17.70;60.50;102141.69;4860146;29;20224;-63
2022/01/01 07:25:10;;;;;;;45.67;29.37;;;14.90;82.30;;;17.70;60.56;102147.00;4840937;29;20229;-62
2022/01/01 07:27:38;;;;;;;48.40;30.17;;;14.90;82.20;;;17.71;60.55;102148.66;4842398;29;20312;-63
2022/01/01 07:30:08;;;;;;;44.57;29.43;;;14.90;82.30;;;17.71;60.62;102154.78;4842165;29;20200;-62
2022/01/01 07:32:43;;;;;;;48.73;30.20;;;14.90;82.20;;;17.72;60.44;102160.94;4841813;29;20567;-63
2022/01/01 07:35:14;;;;;;;50.67;31.23;;;14.90;82.20;;;17.74;60.41;102170.41;4843860;29;20667;-61
2022/01/01 07:37:43;;;;;;;50.30;32.30;;;14.90;82.20;;;17.74;60.31;102166.91;4860281;29;20196;-62
2022/01/01 07:40:14;;;;;;;48.07;30.40;;;14.90;82.10;;;17.73;60.30;102162.63;4860259;29;20305;-62
2022/01/01 07:42:43;;;;;;;41.43;27.30;;;14.90;82.20;;;17.75;60.31;102168.59;4860247;29;20273;-63
2022/01/01 07:45:12;;;;;;;50.23;31.63;;;14.90;82.30;;;17.76;60.28;102168.38;4860309;29;20211;-63
2022/01/01 07:47:40;;;;;;;51.03;33.27;;;14.90;82.10;;;17.77;60.29;102170.06;4860449;29;20216;-63
2022/01/01 07:50:09;;;;;;;44.37;27.70;;;14.90;82.00;;;17.79;60.22;102178.66;4859698;29;20211;-63
2022/01/01 07:52:38;;;;;;;38.73;27.07;;;14.90;82.10;;;17.81;60.23;102173.97;4859764;29;20204;-64
2022/01/01 07:55:08;;;;;;;40.30;26.87;;;14.90;82.10;;;17.84;60.05;102180.78;4860544;29;20249;-63
2022/01/01 07:57:36;;;;;;;58.20;34.20;;;15.00;82.20;;;17.85;59.91;102182.44;4860330;29;20223;-63
2022/01/01 08:00:07;;;;;;;45.67;30.13;;;14.90;81.90;;;17.83;59.89;102189.81;4861598;29;20205;-63
2022/01/01 08:02:40;;;;;;;44.70;30.40;;;15.00;82.00;;;17.81;59.94;102197.13;4863754;29;20251;-63
2022/01/01 08:05:09;;;;;;;41.67;27.80;;;15.00;82.00;;;17.81;59.98;102191.78;4862867;29;20213;-63
2022/01/01 08:07:39;;;;;;;38.63;26.43;;;15.00;82.00;;;17.82;59.92;102194.28;4863741;29;20251;-63
2022/01/01 08:10:27;;;;;;;39.30;25.90;;;15.00;81.90;;;17.84;60.04;102194.09;4855182;29;20201;-63
2022/01/01 08:12:54;;;;;;;45.70;28.07;;;15.00;81.80;;;17.87;59.92;102186.56;4862331;29;20228;-63
2022/01/01 08:15:22;;;;;;;41.30;26.17;;;15.10;81.90;;;17.90;60.00;102180.03;4863748;29;20201;-62
2022/01/01 08:17:49;;;;;;;50.47;30.70;;;15.00;81.80;;;17.89;59.79;102173.06;4863775;29;20223;-63
2022/01/01 08:20:16;;;;;;;42.77;27.47;;;15.00;81.60;;;17.88;59.87;102182.88;4863677;29;20566;-63
2022/01/01 08:22:45;;;;;;;47.10;28.10;;;15.00;81.60;;;17.85;59.68;102177.91;4863382;29;20228;-63
2022/01/01 08:25:12;;;;;;;42.63;26.57;;;15.00;81.50;;;17.84;59.70;102175.44;4862930;29;20654;-63
2022/01/01 08:27:40;;;;;;;48.93;29.33;;;15.00;81.50;;;17.82;60.12;102182.81;4845447;29;20228;-64
2022/01/01 08:30:09;;;;;;;44.27;27.90;;;15.00;81.50;;;17.83;59.84;102176.47;4845217;29;20266;-64
2022/01/01 08:32:36;;;;;;;38.07;26.90;;;15.00;81.60;;;17.83;59.84;102176.47;4844676;29;20197;-64
2022/01/01 08:35:05;;;;;;;43.83;25.17;;;15.00;81.50;;;17.84;59.93;102181.59;4845090;29;20221;-64
2022/01/01 08:37:33;;;;;;;41.27;27.33;;;15.00;81.60;;;17.84;59.86;102176.28;4845161;29;20207;-64
2022/01/01 08:40:02;;;;;;;42.43;26.23;;;15.00;81.50;;;17.89;59.79;102167.72;4845329;29;20225;-65
2022/01/01 08:42:29;;;;;;;39.67;27.40;;;15.00;81.50;;;17.92;59.61;102183.34;4854999;29;20204;-63
2022/01/01 08:44:57;;;;;;;39.87;27.50;;;15.00;81.40;;;17.92;59.54;102184.19;4863321;29;20193;-63
2022/01/01 08:47:26;;;;;;;41.03;25.53;;;15.00;81.40;;;17.91;59.53;102179.84;4863348;29;20224;-63
2022/01/01 08:49:55;;;;;;;37.13;26.53;;;15.00;81.30;;;17.91;59.59;102182.50;4863312;29;20200;-64
2022/01/01 08:52:23;;;;;;;35.57;24.37;;;15.00;81.30;;;17.92;59.46;102186.00;4863251;29;20207;-64
2022/01/01 08:55:14;;;;;;;34.73;24.47;;;15.10;81.30;;;17.87;59.47;102181.25;4863283;29;20740;-63
2022/01/01 08:57:41;;;;;;;31.03;23.53;;;15.00;81.10;;;17.90;59.30;102186.19;4863000;29;20204;-64
2022/01/01 09:00:11;;;;;;;39.67;24.33;;;15.00;81.00;;;17.90;59.20;102188.03;4862880;29;20222;-64
2022/01/01 09:02:39;;;;;;;38.60;24.50;;;15.00;80.80;;;17.91;59.28;102192.34;4862560;29;20197;-64
2022/01/01 09:05:08;;;;;;;35.97;23.20;;;15.00;80.80;;;17.90;59.22;102186.19;4863186;29;20196;-64
2022/01/01 09:07:36;;;;;;;41.60;23.60;;;15.00;80.90;;;17.89;59.37;102189.03;4863422;29;20231;-64
2022/01/01 09:10:05;;;;;;;33.80;24.20;;;15.10;80.80;;;17.92;59.33;102189.50;4863481;29;20558;-64
2022/01/01 09:12:34;;;;;;;29.17;21.90;;;15.10;80.70;;;17.98;59.21;102193.25;4861562;29;20204;-64
2022/01/01 09:15:02;;;;;;;30.67;21.43;;;15.10;80.70;;;18.02;59.02;102195.34;4861326;29;20304;-64
2022/01/01 09:17:29;;;;;;;35.30;22.43;;;15.10;80.70;;;18.05;58.86;102194.13;4842982;29;20269;-63
2022/01/01 09:19:57;;;;;;;29.40;20.47;;;15.10;80.50;;;18.07;58.84;102197.44;4844626;29;20201;-64
2022/01/01 09:22:25;;;;;;;35.30;22.67;;;15.20;80.60;;;18.08;58.97;102193.78;4843993;29;20266;-64
2022/01/01 09:24:52;;;;;;;32.43;21.07;;;15.20;80.50;;;18.09;58.69;102200.78;4875596;29;20308;-64
2022/01/01 09:27:20;;;;;;;26.50;18.90;;;15.20;80.50;;;18.10;58.65;102197.06;4861675;29;20201;-64
2022/01/01 09:29:48;;;;;;;30.07;19.03;;;15.20;80.50;;;18.13;58.78;102200.19;4861047;29;20581;-64
2022/01/01 09:32:18;;;;;;;31.10;19.70;;;15.20;80.80;;;18.18;58.20;102207.63;4862441;29;20669;-64
2022/01/01 09:34:46;;;;;;;35.70;22.20;;;15.30;81.20;;;18.18;58.60;102210.31;4862200;29;20613;-64
2022/01/01 09:37:14;;;;;;;33.00;21.70;;;15.30;80.30;;;18.16;58.48;102213.13;4862228;29;20287;-64
2022/01/01 09:39:41;;;;;;;33.10;21.87;;;15.30;80.10;;;18.18;58.46;102221.75;4862884;29;20202;-64
2022/01/01 09:42:11;;;;;;;29.87;20.27;;;15.30;80.00;;;18.20;58.38;102232.25;4862888;29;20200;-64
2022/01/01 09:44:40;;;;;;;34.47;19.97;;;15.30;79.90;;;18.21;58.44;102234.72;4862656;29;20212;-64
2022/01/01 09:47:10;;;;;;;26.40;18.30;;;15.30;80.00;;;18.21;58.47;102228.56;4863433;29;20205;-64
2022/01/01 09:49:38;;;;;;;30.13;17.93;;;15.30;80.00;;;18.23;58.70;102234.56;4863341;29;20188;-64
2022/01/01 09:52:06;;;;;;;29.67;18.33;;;15.40;80.10;;;18.25;58.26;102221.88;4862903;29;20650;-64
2022/01/01 09:54:34;;;;;;;23.93;16.47;;;15.40;80.10;;;18.27;58.39;102226.00;4862050;29;20235;-64
2022/01/01 09:57:02;;;;;;;24.37;16.43;;;15.40;80.10;;;18.32;58.52;102216.59;4863499;29;20221;-64
2022/01/01 09:59:30;;;;;;;25.87;17.20;;;15.40;80.10;;;18.37;58.42;102223.03;4861710;29;20291;-64
2022/01/01 10:01:57;;;;;;;25.67;18.47;;;15.50;80.20;;;18.40;58.06;102219.94;4862026;29;20201;-63
2022/01/01 10:04:30;;;;;;;28.80;18.40;;;15.50;79.80;;;18.40;58.18;102219.16;4861646;29;20220;-64
2022/01/01 10:07:02;;;;;;;25.33;17.50;;;15.50;79.60;;;18.39;58.20;102220.16;4862157;29;20235;-64